sensor_id;sensor_type;location;lat;lon;timestamp;P1;durP1;ratioP1;P2;durP2;ratioP2
32094;SDS011;18608;53.688;10.748;2023-11-18T00:01:45;13.83;;;7.87;;
32094;SDS011;18608;53.688;10.748;2023-11-18T00:04:11;19.53;;;8.90;;
32094;SDS011;18608;53.688;10.748;2023-11-18T00:06:41;15.50;;;8.43;;
32094;SDS011;18608;53.688;10.748;2023-11-18T00:09:09;17.80;;;8.73;;
32094;SDS011;18608;53.688;10.748;2023-11-18T00:11:35;16.60;;;10.03;;
32094;SDS011;18608;53.688;10.748;2023-11-18T00:14:01;16.50;;;10.07;;
32094;SDS011;18608;53.688;10.748;2023-11-18T00:16:29;16.50;;;8.27;;
32094;SDS011;18608;53.688;10.748;2023-11-18T00:18:56;17.30;;;9.03;;
32094;SDS011;18608;53.688;10.748;2023-11-18T00:21:24;15.40;;;9.27;;
32094;SDS011;18608;53.688;10.748;2023-11-18T00:23:50;21.03;;;10.20;;
32094;SDS011;18608;53.688;10.748;2023-11-18T00:26:16;12.90;;;8.70;;
32094;SDS011;18608;53.688;10.748;2023-11-18T00:28:42;18.23;;;10.03;;
32094;SDS011;18608;53.688;10.748;2023-11-18T00:31:08;19.17;;;10.17;;
32094;SDS011;18608;53.688;10.748;2023-11-18T00:33:34;12.07;;;8.70;;
32094;SDS011;18608;53.688;10.748;2023-11-18T00:36:00;17.43;;;9.77;;
32094;SDS011;18608;53.688;10.748;2023-11-18T00:38:26;14.37;;;8.60;;
32094;SDS011;18608;53.688;10.748;2023-11-18T00:40:52;15.10;;;8.40;;
32094;SDS011;18608;53.688;10.748;2023-11-18T00:43:18;16.13;;;9.23;;
32094;SDS011;18608;53.688;10.748;2023-11-18T00:45:44;24.80;;;9.60;;
32094;SDS011;18608;53.688;10.748;2023-11-18T00:48:10;16.03;;;8.97;;
32094;SDS011;18608;53.688;10.748;2023-11-18T00:50:36;14.50;;;9.23;;
32094;SDS011;18608;53.688;10.748;2023-11-18T00:53:02;13.60;;;8.50;;
32094;SDS011;18608;53.688;10.748;2023-11-18T00:55:30;16.90;;;10.33;;
32094;SDS011;18608;53.688;10.748;2023-11-18T00:57:56;14.87;;;8.87;;
32094;SDS011;18608;53.688;10.748;2023-11-18T01:00:23;14.17;;;8.90;;
32094;SDS011;18608;53.688;10.748;2023-11-18T01:02:51;13.40;;;9.13;;
32094;SDS011;18608;53.688;10.748;2023-11-18T01:05:18;12.77;;;8.67;;
32094;SDS011;18608;53.688;10.748;2023-11-18T01:07:44;11.93;;;7.13;;
32094;SDS011;18608;53.688;10.748;2023-11-18T01:10:10;13.27;;;8.67;;
32094;SDS011;18608;53.688;10.748;2023-11-18T01:12:36;19.50;;;9.70;;
32094;SDS011;18608;53.688;10.748;2023-11-18T01:15:03;12.93;;;7.90;;
32094;SDS011;18608;53.688;10.748;2023-11-18T01:17:29;18.27;;;10.17;;
32094;SDS011;18608;53.688;10.748;2023-11-18T01:19:56;16.87;;;9.47;;
32094;SDS011;18608;53.688;10.748;2023-11-18T01:22:23;20.00;;;10.67;;
32094;SDS011;18608;53.688;10.748;2023-11-18T01:24:49;11.60;;;8.10;;
32094;SDS011;18608;53.688;10.748;2023-11-18T01:27:16;15.60;;;8.80;;
32094;SDS011;18608;53.688;10.748;2023-11-18T01:29:44;14.60;;;7.70;;
32094;SDS011;18608;53.688;10.748;2023-11-18T01:32:12;16.00;;;8.80;;
32094;SDS011;18608;53.688;10.748;2023-11-18T01:34:39;13.50;;;9.60;;
32094;SDS011;18608;53.688;10.748;2023-11-18T01:37:05;16.07;;;9.60;;
32094;SDS011;18608;53.688;10.748;2023-11-18T01:39:35;15.77;;;7.60;;
32094;SDS011;18608;53.688;10.748;2023-11-18T01:42:01;11.90;;;8.30;;
32094;SDS011;18608;53.688;10.748;2023-11-18T01:44:29;14.67;;;9.70;;
32094;SDS011;18608;53.688;10.748;2023-11-18T01:46:56;12.53;;;8.43;;
32094;SDS011;18608;53.688;10.748;2023-11-18T01:49:22;14.07;;;8.20;;
32094;SDS011;18608;53.688;10.748;2023-11-18T01:51:52;13.90;;;8.60;;
32094;SDS011;18608;53.688;10.748;2023-11-18T01:54:18;12.73;;;8.40;;
32094;SDS011;18608;53.688;10.748;2023-11-18T01:56:48;9.20;;;7.53;;
32094;SDS011;18608;53.688;10.748;2023-11-18T01:59:14;14.70;;;8.27;;
32094;SDS011;18608;53.688;10.748;2023-11-18T02:01:47;13.23;;;8.20;;
32094;SDS011;18608;53.688;10.748;2023-11-18T02:04:14;15.77;;;9.27;;
32094;SDS011;18608;53.688;10.748;2023-11-18T02:06:41;9.53;;;7.10;;
32094;SDS011;18608;53.688;10.748;2023-11-18T02:09:09;17.73;;;9.00;;
32094;SDS011;18608;53.688;10.748;2023-11-18T02:11:36;13.17;;;7.53;;
32094;SDS011;18608;53.688;10.748;2023-11-18T02:14:07;15.03;;;8.70;;
32094;SDS011;18608;53.688;10.748;2023-11-18T02:16:36;15.23;;;8.57;;
32094;SDS011;18608;53.688;10.748;2023-11-18T02:19:03;20.47;;;8.80;;
32094;SDS011;18608;53.688;10.748;2023-11-18T02:21:34;14.00;;;8.00;;
32094;SDS011;18608;53.688;10.748;2023-11-18T02:24:02;13.67;;;8.47;;
32094;SDS011;18608;53.688;10.748;2023-11-18T02:26:29;13.63;;;9.00;;
32094;SDS011;18608;53.688;10.748;2023-11-18T02:28:55;17.60;;;10.03;;
32094;SDS011;18608;53.688;10.748;2023-11-18T02:31:23;17.13;;;8.50;;
32094;SDS011;18608;53.688;10.748;2023-11-18T02:34:15;11.20;;;7.60;;
32094;SDS011;18608;53.688;10.748;2023-11-18T02:36:48;14.20;;;7.50;;
32094;SDS011;18608;53.688;10.748;2023-11-18T02:42:10;13.60;;;8.57;;
32094;SDS011;18608;53.688;10.748;2023-11-18T02:44:37;18.83;;;9.30;;
32094;SDS011;18608;53.688;10.748;2023-11-18T02:47:03;16.73;;;9.33;;
32094;SDS011;18608;53.688;10.748;2023-11-18T02:49:35;15.57;;;9.20;;
32094;SDS011;18608;53.688;10.748;2023-11-18T02:52:01;14.93;;;8.97;;
32094;SDS011;18608;53.688;10.748;2023-11-18T02:54:28;16.47;;;10.37;;
32094;SDS011;18608;53.688;10.748;2023-11-18T02:56:53;42.17;;;10.50;;
32094;SDS011;18608;53.688;10.748;2023-11-18T02:59:20;23.60;;;10.47;;
32094;SDS011;18608;53.688;10.748;2023-11-18T03:01:46;18.90;;;9.70;;
32094;SDS011;18608;53.688;10.748;2023-11-18T03:04:12;22.40;;;12.10;;
32094;SDS011;18608;53.688;10.748;2023-11-18T03:06:39;17.40;;;9.17;;
32094;SDS011;18608;53.688;10.748;2023-11-18T03:09:06;26.60;;;10.80;;
32094;SDS011;18608;53.688;10.748;2023-11-18T03:11:35;18.10;;;9.03;;
32094;SDS011;18608;53.688;10.748;2023-11-18T03:14:01;20.37;;;11.40;;
32094;SDS011;18608;53.688;10.748;2023-11-18T03:16:29;15.20;;;9.27;;
32094;SDS011;18608;53.688;10.748;2023-11-18T03:18:55;17.80;;;9.83;;
32094;SDS011;18608;53.688;10.748;2023-11-18T03:21:22;17.90;;;9.63;;
32094;SDS011;18608;53.688;10.748;2023-11-18T03:23:48;17.10;;;9.00;;
32094;SDS011;18608;53.688;10.748;2023-11-18T03:26:14;17.20;;;9.53;;
32094;SDS011;18608;53.688;10.748;2023-11-18T03:28:40;18.20;;;9.50;;
32094;SDS011;18608;53.688;10.748;2023-11-18T03:31:06;21.73;;;10.40;;
32094;SDS011;18608;53.688;10.748;2023-11-18T03:33:34;16.90;;;10.70;;
32094;SDS011;18608;53.688;10.748;2023-11-18T03:36:00;13.80;;;9.13;;
32094;SDS011;18608;53.688;10.748;2023-11-18T03:38:26;21.43;;;10.20;;
32094;SDS011;18608;53.688;10.748;2023-11-18T03:40:53;20.63;;;10.40;;
32094;SDS011;18608;53.688;10.748;2023-11-18T03:43:20;23.00;;;10.67;;
32094;SDS011;18608;53.688;10.748;2023-11-18T03:45:47;14.10;;;8.43;;
32094;SDS011;18608;53.688;10.748;2023-11-18T03:48:13;23.23;;;10.77;;
32094;SDS011;18608;53.688;10.748;2023-11-18T03:50:39;17.90;;;9.80;;
32094;SDS011;18608;53.688;10.748;2023-11-18T03:53:05;17.77;;;9.60;;
32094;SDS011;18608;53.688;10.748;2023-11-18T03:55:31;20.43;;;10.00;;
32094;SDS011;18608;53.688;10.748;2023-11-18T03:57:58;19.30;;;10.63;;
32094;SDS011;18608;53.688;10.748;2023-11-18T04:00:24;20.17;;;9.77;;
32094;SDS011;18608;53.688;10.748;2023-11-18T04:02:57;15.00;;;9.10;;
32094;SDS011;18608;53.688;10.748;2023-11-18T04:05:26;15.73;;;9.40;;
32094;SDS011;18608;53.688;10.748;2023-11-18T04:07:52;13.93;;;8.43;;
32094;SDS011;18608;53.688;10.748;2023-11-18T04:10:18;17.67;;;9.60;;
32094;SDS011;18608;53.688;10.748;2023-11-18T04:12:45;20.57;;;9.83;;
32094;SDS011;18608;53.688;10.748;2023-11-18T04:15:13;18.63;;;10.60;;
32094;SDS011;18608;53.688;10.748;2023-11-18T04:17:39;16.77;;;10.80;;
32094;SDS011;18608;53.688;10.748;2023-11-18T04:20:05;22.37;;;11.07;;
32094;SDS011;18608;53.688;10.748;2023-11-18T04:22:42;30.83;;;11.93;;
32094;SDS011;18608;53.688;10.748;2023-11-18T04:25:09;24.73;;;12.10;;
32094;SDS011;18608;53.688;10.748;2023-11-18T04:27:35;27.80;;;13.00;;
32094;SDS011;18608;53.688;10.748;2023-11-18T04:30:01;29.47;;;14.17;;
32094;SDS011;18608;53.688;10.748;2023-11-18T04:32:27;31.47;;;13.50;;
32094;SDS011;18608;53.688;10.748;2023-11-18T04:34:53;40.47;;;13.07;;
32094;SDS011;18608;53.688;10.748;2023-11-18T04:37:20;61.93;;;14.10;;
32094;SDS011;18608;53.688;10.748;2023-11-18T04:39:46;31.80;;;12.80;;
32094;SDS011;18608;53.688;10.748;2023-11-18T04:42:12;26.93;;;11.33;;
32094;SDS011;18608;53.688;10.748;2023-11-18T04:44:37;29.83;;;13.33;;
32094;SDS011;18608;53.688;10.748;2023-11-18T04:47:04;22.97;;;11.83;;
32094;SDS011;18608;53.688;10.748;2023-11-18T04:49:30;21.77;;;10.80;;
32094;SDS011;18608;53.688;10.748;2023-11-18T04:51:56;22.30;;;11.10;;
32094;SDS011;18608;53.688;10.748;2023-11-18T04:54:24;18.17;;;11.57;;
32094;SDS011;18608;53.688;10.748;2023-11-18T04:56:49;16.00;;;10.77;;
32094;SDS011;18608;53.688;10.748;2023-11-18T04:59:15;17.60;;;9.57;;
32094;SDS011;18608;53.688;10.748;2023-11-18T05:01:42;17.30;;;10.77;;
32094;SDS011;18608;53.688;10.748;2023-11-18T05:04:08;15.80;;;8.80;;
32094;SDS011;18608;53.688;10.748;2023-11-18T05:06:34;13.13;;;8.67;;
32094;SDS011;18608;53.688;10.748;2023-11-18T05:09:00;21.53;;;10.53;;
32094;SDS011;18608;53.688;10.748;2023-11-18T05:11:26;12.90;;;7.90;;
32094;SDS011;18608;53.688;10.748;2023-11-18T05:13:53;17.60;;;9.40;;
32094;SDS011;18608;53.688;10.748;2023-11-18T05:16:21;21.70;;;10.60;;
32094;SDS011;18608;53.688;10.748;2023-11-18T05:18:47;15.70;;;9.03;;
32094;SDS011;18608;53.688;10.748;2023-11-18T05:21:13;18.73;;;9.90;;
32094;SDS011;18608;53.688;10.748;2023-11-18T05:23:39;17.13;;;10.23;;
32094;SDS011;18608;53.688;10.748;2023-11-18T05:26:04;16.67;;;10.30;;
32094;SDS011;18608;53.688;10.748;2023-11-18T05:28:31;18.10;;;9.30;;
32094;SDS011;18608;53.688;10.748;2023-11-18T05:30:57;20.63;;;10.80;;
32094;SDS011;18608;53.688;10.748;2023-11-18T05:33:26;19.33;;;11.20;;
32094;SDS011;18608;53.688;10.748;2023-11-18T05:35:53;20.20;;;11.77;;
32094;SDS011;18608;53.688;10.748;2023-11-18T05:38:19;25.27;;;13.20;;
32094;SDS011;18608;53.688;10.748;2023-11-18T05:40:51;19.70;;;11.27;;
32094;SDS011;18608;53.688;10.748;2023-11-18T05:43:26;21.87;;;12.10;;
32094;SDS011;18608;53.688;10.748;2023-11-18T05:46:04;19.20;;;11.77;;
32094;SDS011;18608;53.688;10.748;2023-11-18T05:48:42;23.10;;;12.20;;
32094;SDS011;18608;53.688;10.748;2023-11-18T05:51:08;23.70;;;12.40;;
32094;SDS011;18608;53.688;10.748;2023-11-18T05:53:35;25.07;;;12.60;;
32094;SDS011;18608;53.688;10.748;2023-11-18T05:56:05;21.80;;;12.33;;
32094;SDS011;18608;53.688;10.748;2023-11-18T05:58:31;25.73;;;12.67;;
32094;SDS011;18608;53.688;10.748;2023-11-18T06:00:58;20.37;;;11.70;;
32094;SDS011;18608;53.688;10.748;2023-11-18T06:03:24;23.90;;;12.73;;
32094;SDS011;18608;53.688;10.748;2023-11-18T06:05:50;21.63;;;11.33;;
32094;SDS011;18608;53.688;10.748;2023-11-18T06:08:16;22.90;;;12.53;;
32094;SDS011;18608;53.688;10.748;2023-11-18T06:10:42;27.40;;;13.20;;
32094;SDS011;18608;53.688;10.748;2023-11-18T06:13:09;21.20;;;12.37;;
32094;SDS011;18608;53.688;10.748;2023-11-18T06:15:38;22.30;;;11.90;;
32094;SDS011;18608;53.688;10.748;2023-11-18T06:18:04;20.63;;;11.53;;
32094;SDS011;18608;53.688;10.748;2023-11-18T06:20:30;32.47;;;13.17;;
32094;SDS011;18608;53.688;10.748;2023-11-18T06:22:56;23.73;;;12.77;;
32094;SDS011;18608;53.688;10.748;2023-11-18T06:25:22;24.77;;;12.23;;
32094;SDS011;18608;53.688;10.748;2023-11-18T06:27:50;23.57;;;13.90;;
32094;SDS011;18608;53.688;10.748;2023-11-18T06:30:17;18.43;;;10.37;;
32094;SDS011;18608;53.688;10.748;2023-11-18T06:32:45;24.83;;;13.23;;
32094;SDS011;18608;53.688;10.748;2023-11-18T06:35:12;25.50;;;11.10;;
32094;SDS011;18608;53.688;10.748;2023-11-18T06:37:41;16.50;;;10.37;;
32094;SDS011;18608;53.688;10.748;2023-11-18T06:40:07;24.00;;;12.93;;
32094;SDS011;18608;53.688;10.748;2023-11-18T06:42:41;20.03;;;11.20;;
32094;SDS011;18608;53.688;10.748;2023-11-18T06:45:07;23.37;;;12.20;;
32094;SDS011;18608;53.688;10.748;2023-11-18T06:47:35;21.50;;;11.93;;
32094;SDS011;18608;53.688;10.748;2023-11-18T06:50:03;24.60;;;12.90;;
32094;SDS011;18608;53.688;10.748;2023-11-18T06:52:29;21.37;;;11.70;;
32094;SDS011;18608;53.688;10.748;2023-11-18T06:54:55;20.90;;;11.63;;
32094;SDS011;18608;53.688;10.748;2023-11-18T06:57:22;22.53;;;11.83;;
32094;SDS011;18608;53.688;10.748;2023-11-18T06:59:48;19.20;;;11.50;;
32094;SDS011;18608;53.688;10.748;2023-11-18T07:02:14;16.67;;;10.23;;
32094;SDS011;18608;53.688;10.748;2023-11-18T07:04:40;21.90;;;10.87;;
32094;SDS011;18608;53.688;10.748;2023-11-18T07:07:07;28.50;;;13.00;;
32094;SDS011;18608;53.688;10.748;2023-11-18T07:09:33;22.87;;;11.93;;
32094;SDS011;18608;53.688;10.748;2023-11-18T07:12:01;21.47;;;11.63;;
32094;SDS011;18608;53.688;10.748;2023-11-18T07:14:28;17.80;;;10.87;;
32094;SDS011;18608;53.688;10.748;2023-11-18T07:16:54;16.90;;;10.17;;
32094;SDS011;18608;53.688;10.748;2023-11-18T07:19:20;21.43;;;12.53;;
32094;SDS011;18608;53.688;10.748;2023-11-18T07:21:47;17.10;;;11.00;;
32094;SDS011;18608;53.688;10.748;2023-11-18T07:24:14;18.00;;;11.23;;
32094;SDS011;18608;53.688;10.748;2023-11-18T07:26:40;17.30;;;9.77;;
32094;SDS011;18608;53.688;10.748;2023-11-18T07:29:05;24.33;;;12.80;;
32094;SDS011;18608;53.688;10.748;2023-11-18T07:31:34;20.80;;;11.03;;
32094;SDS011;18608;53.688;10.748;2023-11-18T07:34:03;21.40;;;11.73;;
32094;SDS011;18608;53.688;10.748;2023-11-18T07:36:30;18.93;;;10.97;;
32094;SDS011;18608;53.688;10.748;2023-11-18T07:38:57;20.60;;;11.73;;
32094;SDS011;18608;53.688;10.748;2023-11-18T07:41:26;25.57;;;13.27;;
32094;SDS011;18608;53.688;10.748;2023-11-18T07:43:52;20.60;;;12.83;;
32094;SDS011;18608;53.688;10.748;2023-11-18T07:46:19;21.50;;;12.60;;
32094;SDS011;18608;53.688;10.748;2023-11-18T07:48:52;21.50;;;10.87;;
32094;SDS011;18608;53.688;10.748;2023-11-18T07:51:18;21.67;;;10.70;;
32094;SDS011;18608;53.688;10.748;2023-11-18T07:53:48;27.80;;;12.70;;
32094;SDS011;18608;53.688;10.748;2023-11-18T07:56:14;19.90;;;10.33;;
32094;SDS011;18608;53.688;10.748;2023-11-18T07:58:42;20.20;;;11.37;;
32094;SDS011;18608;53.688;10.748;2023-11-18T08:01:10;20.50;;;11.30;;
32094;SDS011;18608;53.688;10.748;2023-11-18T08:03:36;23.87;;;12.77;;
32094;SDS011;18608;53.688;10.748;2023-11-18T08:06:03;21.60;;;11.30;;
32094;SDS011;18608;53.688;10.748;2023-11-18T08:08:32;22.87;;;11.20;;
32094;SDS011;18608;53.688;10.748;2023-11-18T08:10:58;26.67;;;12.80;;
32094;SDS011;18608;53.688;10.748;2023-11-18T08:13:25;21.27;;;12.40;;
32094;SDS011;18608;53.688;10.748;2023-11-18T08:15:51;18.77;;;10.97;;
32094;SDS011;18608;53.688;10.748;2023-11-18T08:18:17;20.50;;;11.83;;
32094;SDS011;18608;53.688;10.748;2023-11-18T08:20:43;20.00;;;11.43;;
32094;SDS011;18608;53.688;10.748;2023-11-18T08:23:09;24.17;;;13.10;;
32094;SDS011;18608;53.688;10.748;2023-11-18T08:25:35;21.17;;;11.80;;
32094;SDS011;18608;53.688;10.748;2023-11-18T08:28:02;19.53;;;10.63;;
32094;SDS011;18608;53.688;10.748;2023-11-18T08:30:28;23.13;;;12.00;;
32094;SDS011;18608;53.688;10.748;2023-11-18T08:32:54;20.37;;;11.13;;
32094;SDS011;18608;53.688;10.748;2023-11-18T08:35:20;20.70;;;11.23;;
32094;SDS011;18608;53.688;10.748;2023-11-18T08:37:47;22.90;;;11.77;;
32094;SDS011;18608;53.688;10.748;2023-11-18T08:40:13;22.63;;;12.07;;
32094;SDS011;18608;53.688;10.748;2023-11-18T08:42:49;19.87;;;11.13;;
32094;SDS011;18608;53.688;10.748;2023-11-18T08:45:20;17.13;;;11.43;;
32094;SDS011;18608;53.688;10.748;2023-11-18T08:47:52;17.93;;;10.47;;
32094;SDS011;18608;53.688;10.748;2023-11-18T08:50:18;21.53;;;11.40;;
32094;SDS011;18608;53.688;10.748;2023-11-18T08:52:44;17.10;;;11.40;;
32094;SDS011;18608;53.688;10.748;2023-11-18T08:55:15;20.10;;;11.60;;
32094;SDS011;18608;53.688;10.748;2023-11-18T08:57:49;28.70;;;12.20;;
32094;SDS011;18608;53.688;10.748;2023-11-18T09:00:27;16.60;;;10.43;;
32094;SDS011;18608;53.688;10.748;2023-11-18T09:03:12;16.10;;;10.80;;
32094;SDS011;18608;53.688;10.748;2023-11-18T09:05:53;21.43;;;11.07;;
32094;SDS011;18608;53.688;10.748;2023-11-18T09:08:26;23.00;;;10.97;;
32094;SDS011;18608;53.688;10.748;2023-11-18T09:11:07;18.03;;;10.40;;
32094;SDS011;18608;53.688;10.748;2023-11-18T09:13:39;22.60;;;12.07;;
32094;SDS011;18608;53.688;10.748;2023-11-18T09:16:06;23.23;;;12.47;;
32094;SDS011;18608;53.688;10.748;2023-11-18T09:18:35;21.23;;;11.77;;
32094;SDS011;18608;53.688;10.748;2023-11-18T09:21:02;25.20;;;11.50;;
32094;SDS011;18608;53.688;10.748;2023-11-18T09:23:30;22.53;;;11.50;;
32094;SDS011;18608;53.688;10.748;2023-11-18T09:25:57;25.53;;;12.43;;
32094;SDS011;18608;53.688;10.748;2023-11-18T09:28:23;20.17;;;12.57;;
32094;SDS011;18608;53.688;10.748;2023-11-18T09:30:50;21.50;;;11.43;;
32094;SDS011;18608;53.688;10.748;2023-11-18T09:33:21;18.77;;;11.40;;
32094;SDS011;18608;53.688;10.748;2023-11-18T09:35:57;14.97;;;9.90;;
32094;SDS011;18608;53.688;10.748;2023-11-18T09:38:30;20.07;;;10.87;;
32094;SDS011;18608;53.688;10.748;2023-11-18T09:40:57;17.67;;;10.30;;
32094;SDS011;18608;53.688;10.748;2023-11-18T09:43:27;14.37;;;10.23;;
32094;SDS011;18608;53.688;10.748;2023-11-18T09:46:12;21.57;;;10.83;;
32094;SDS011;18608;53.688;10.748;2023-11-18T09:48:40;18.03;;;11.70;;
32094;SDS011;18608;53.688;10.748;2023-11-18T09:51:10;18.90;;;10.90;;
32094;SDS011;18608;53.688;10.748;2023-11-18T09:53:46;17.33;;;11.27;;
32094;SDS011;18608;53.688;10.748;2023-11-18T09:56:19;35.63;;;11.73;;
32094;SDS011;18608;53.688;10.748;2023-11-18T10:01:44;21.87;;;11.17;;
32094;SDS011;18608;53.688;10.748;2023-11-18T10:04:18;19.33;;;11.13;;
32094;SDS011;18608;53.688;10.748;2023-11-18T10:06:48;16.53;;;10.60;;
32094;SDS011;18608;53.688;10.748;2023-11-18T10:09:18;22.53;;;12.67;;
32094;SDS011;18608;53.688;10.748;2023-11-18T10:11:53;18.67;;;12.03;;
32094;SDS011;18608;53.688;10.748;2023-11-18T10:14:25;16.80;;;10.60;;
32094;SDS011;18608;53.688;10.748;2023-11-18T10:16:51;16.00;;;10.03;;
32094;SDS011;18608;53.688;10.748;2023-11-18T10:19:19;20.47;;;10.47;;
32094;SDS011;18608;53.688;10.748;2023-11-18T10:21:46;17.70;;;10.77;;
32094;SDS011;18608;53.688;10.748;2023-11-18T10:24:15;17.40;;;10.30;;
32094;SDS011;18608;53.688;10.748;2023-11-18T10:26:44;15.80;;;10.17;;
32094;SDS011;18608;53.688;10.748;2023-11-18T10:29:11;14.47;;;9.87;;
32094;SDS011;18608;53.688;10.748;2023-11-18T10:31:39;16.80;;;8.47;;
32094;SDS011;18608;53.688;10.748;2023-11-18T10:34:10;17.43;;;9.40;;
32094;SDS011;18608;53.688;10.748;2023-11-18T10:36:37;14.60;;;9.30;;
32094;SDS011;18608;53.688;10.748;2023-11-18T10:39:04;13.60;;;8.60;;
32094;SDS011;18608;53.688;10.748;2023-11-18T10:41:42;9.73;;;7.60;;
32094;SDS011;18608;53.688;10.748;2023-11-18T10:44:09;8.50;;;6.70;;
32094;SDS011;18608;53.688;10.748;2023-11-18T10:46:38;7.93;;;6.53;;
32094;SDS011;18608;53.688;10.748;2023-11-18T10:49:05;9.47;;;6.43;;
32094;SDS011;18608;53.688;10.748;2023-11-18T10:51:35;7.90;;;6.20;;
32094;SDS011;18608;53.688;10.748;2023-11-18T10:54:04;7.17;;;4.90;;
32094;SDS011;18608;53.688;10.748;2023-11-18T10:56:39;4.03;;;3.17;;
32094;SDS011;18608;53.688;10.748;2023-11-18T10:59:11;4.70;;;4.20;;
32094;SDS011;18608;53.688;10.748;2023-11-18T11:01:44;3.43;;;3.13;;
32094;SDS011;18608;53.688;10.748;2023-11-18T11:04:13;3.10;;;2.90;;
32094;SDS011;18608;53.688;10.748;2023-11-18T11:06:44;3.07;;;2.77;;
32094;SDS011;18608;53.688;10.748;2023-11-18T11:09:17;3.53;;;2.20;;
32094;SDS011;18608;53.688;10.748;2023-11-18T11:12:07;2.80;;;2.50;;
32094;SDS011;18608;53.688;10.748;2023-11-18T11:14:40;2.60;;;2.03;;
32094;SDS011;18608;53.688;10.748;2023-11-18T11:17:13;3.27;;;2.97;;
32094;SDS011;18608;53.688;10.748;2023-11-18T11:22:31;2.00;;;1.70;;
32094;SDS011;18608;53.688;10.748;2023-11-18T11:27:40;1.90;;;1.80;;
32094;SDS011;18608;53.688;10.748;2023-11-18T11:32:50;1.10;;;1.10;;
32094;SDS011;18608;53.688;10.748;2023-11-18T11:35:23;2.40;;;2.20;;
32094;SDS011;18608;53.688;10.748;2023-11-18T11:37:53;2.50;;;2.00;;
32094;SDS011;18608;53.688;10.748;2023-11-18T11:40:20;2.57;;;1.97;;
32094;SDS011;18608;53.688;10.748;2023-11-18T11:42:48;1.43;;;1.30;;
32094;SDS011;18608;53.688;10.748;2023-11-18T11:45:22;1.83;;;1.70;;
32094;SDS011;18608;53.688;10.748;2023-11-18T11:47:53;1.50;;;1.40;;
32094;SDS011;18608;53.688;10.748;2023-11-18T11:50:54;2.07;;;1.97;;
32094;SDS011;18608;53.688;10.748;2023-11-18T11:53:38;3.47;;;1.33;;
32094;SDS011;18608;53.688;10.748;2023-11-18T11:56:10;1.70;;;1.60;;
32094;SDS011;18608;53.688;10.748;2023-11-18T11:58:40;2.10;;;2.00;;
32094;SDS011;18608;53.688;10.748;2023-11-18T12:01:15;3.33;;;2.40;;
32094;SDS011;18608;53.688;10.748;2023-11-18T12:03:48;1.97;;;1.87;;
32094;SDS011;18608;53.688;10.748;2023-11-18T12:06:18;4.13;;;2.73;;
32094;SDS011;18608;53.688;10.748;2023-11-18T12:08:49;3.33;;;2.63;;
32094;SDS011;18608;53.688;10.748;2023-11-18T12:11:18;2.60;;;2.40;;
32094;SDS011;18608;53.688;10.748;2023-11-18T12:14:08;2.63;;;1.97;;
32094;SDS011;18608;53.688;10.748;2023-11-18T12:19:35;2.10;;;1.90;;
32094;SDS011;18608;53.688;10.748;2023-11-18T12:22:14;2.77;;;2.53;;
32094;SDS011;18608;53.688;10.748;2023-11-18T12:25:28;3.33;;;2.10;;
32094;SDS011;18608;53.688;10.748;2023-11-18T12:35:23;2.90;;;2.60;;
32094;SDS011;18608;53.688;10.748;2023-11-18T12:40:36;2.40;;;2.20;;
32094;SDS011;18608;53.688;10.748;2023-11-18T12:43:11;3.43;;;1.50;;
32094;SDS011;18608;53.688;10.748;2023-11-18T12:45:43;2.83;;;2.53;;
32094;SDS011;18608;53.688;10.748;2023-11-18T12:48:25;1.97;;;1.73;;
32094;SDS011;18608;53.688;10.748;2023-11-18T12:50:57;1.50;;;1.40;;
32094;SDS011;18608;53.688;10.748;2023-11-18T12:53:23;2.43;;;1.53;;
32094;SDS011;18608;53.688;10.748;2023-11-18T12:55:50;1.90;;;1.80;;
32094;SDS011;18608;53.688;10.748;2023-11-18T12:58:17;1.97;;;1.70;;
32094;SDS011;18608;53.688;10.748;2023-11-18T13:00:43;1.90;;;1.80;;
32094;SDS011;18608;53.688;10.748;2023-11-18T13:03:10;1.57;;;1.47;;
32094;SDS011;18608;53.688;10.748;2023-11-18T13:05:40;2.43;;;2.13;;
32094;SDS011;18608;53.688;10.748;2023-11-18T13:08:06;1.70;;;1.60;;
32094;SDS011;18608;53.688;10.748;2023-11-18T13:10:32;2.27;;;2.07;;
32094;SDS011;18608;53.688;10.748;2023-11-18T13:12:58;2.30;;;2.10;;
32094;SDS011;18608;53.688;10.748;2023-11-18T13:15:25;1.77;;;1.67;;
32094;SDS011;18608;53.688;10.748;2023-11-18T13:18:02;2.00;;;1.87;;
32094;SDS011;18608;53.688;10.748;2023-11-18T13:20:34;2.40;;;1.70;;
32094;SDS011;18608;53.688;10.748;2023-11-18T13:23:04;2.17;;;1.97;;
32094;SDS011;18608;53.688;10.748;2023-11-18T13:25:37;2.40;;;2.20;;
32094;SDS011;18608;53.688;10.748;2023-11-18T13:28:10;3.30;;;1.87;;
32094;SDS011;18608;53.688;10.748;2023-11-18T13:30:36;3.73;;;2.70;;
32094;SDS011;18608;53.688;10.748;2023-11-18T13:33:03;3.40;;;2.57;;
32094;SDS011;18608;53.688;10.748;2023-11-18T13:35:29;4.70;;;2.13;;
32094;SDS011;18608;53.688;10.748;2023-11-18T13:37:55;1.80;;;1.67;;
32094;SDS011;18608;53.688;10.748;2023-11-18T13:40:23;2.30;;;2.10;;
32094;SDS011;18608;53.688;10.748;2023-11-18T13:43:00;2.07;;;1.87;;
32094;SDS011;18608;53.688;10.748;2023-11-18T13:45:28;1.70;;;1.60;;
32094;SDS011;18608;53.688;10.748;2023-11-18T13:47:55;2.50;;;2.10;;
32094;SDS011;18608;53.688;10.748;2023-11-18T13:50:22;1.80;;;1.70;;
32094;SDS011;18608;53.688;10.748;2023-11-18T13:52:50;4.83;;;2.13;;
32094;SDS011;18608;53.688;10.748;2023-11-18T13:55:16;1.87;;;1.73;;
32094;SDS011;18608;53.688;10.748;2023-11-18T13:57:42;2.50;;;2.30;;
32094;SDS011;18608;53.688;10.748;2023-11-18T14:00:09;2.07;;;1.87;;
32094;SDS011;18608;53.688;10.748;2023-11-18T14:02:40;2.67;;;2.47;;
32094;SDS011;18608;53.688;10.748;2023-11-18T14:05:14;2.20;;;2.10;;
32094;SDS011;18608;53.688;10.748;2023-11-18T14:07:45;2.43;;;2.27;;
32094;SDS011;18608;53.688;10.748;2023-11-18T14:10:13;3.77;;;2.60;;
32094;SDS011;18608;53.688;10.748;2023-11-18T14:12:39;2.50;;;2.17;;
32094;SDS011;18608;53.688;10.748;2023-11-18T14:15:05;2.00;;;1.77;;
32094;SDS011;18608;53.688;10.748;2023-11-18T14:17:34;2.23;;;2.03;;
32094;SDS011;18608;53.688;10.748;2023-11-18T14:20:01;2.03;;;1.93;;
32094;SDS011;18608;53.688;10.748;2023-11-18T14:22:27;1.80;;;1.70;;
32094;SDS011;18608;53.688;10.748;2023-11-18T14:24:53;4.87;;;1.83;;
32094;SDS011;18608;53.688;10.748;2023-11-18T14:27:19;2.60;;;2.40;;
32094;SDS011;18608;53.688;10.748;2023-11-18T14:29:45;2.57;;;2.10;;
32094;SDS011;18608;53.688;10.748;2023-11-18T14:32:11;2.87;;;2.67;;
32094;SDS011;18608;53.688;10.748;2023-11-18T14:34:39;3.13;;;2.27;;
32094;SDS011;18608;53.688;10.748;2023-11-18T14:37:07;2.73;;;2.53;;
32094;SDS011;18608;53.688;10.748;2023-11-18T14:39:33;4.70;;;2.43;;
32094;SDS011;18608;53.688;10.748;2023-11-18T14:42:01;2.50;;;2.30;;
32094;SDS011;18608;53.688;10.748;2023-11-18T14:44:27;4.83;;;2.83;;
32094;SDS011;18608;53.688;10.748;2023-11-18T14:46:53;2.97;;;2.37;;
32094;SDS011;18608;53.688;10.748;2023-11-18T14:49:19;5.53;;;2.03;;
32094;SDS011;18608;53.688;10.748;2023-11-18T14:51:45;4.97;;;2.93;;
32094;SDS011;18608;53.688;10.748;2023-11-18T14:54:11;5.33;;;2.97;;